Time;durP1;ratioP1;P1;durP2;ratioP2;P2;SDS_P1;SDS_P2;PMS_P1;PMS_P2;Temp;Humidity;BMP_temperature;BMP_pressure;BME280_temperature;BME280_humidity;BME280_pressure;Samples;Min_cycle;Max_cycle;Signal;HPM_P1;HPM_P2
2023/08/21 00:01:20;;;;;;;21.10;10.30;;;16.80;99.90;;;;;;5113390;28;20411;-51
2023/08/21 00:03:45;;;;;;;22.53;8.27;;;16.70;99.90;;;;;;5114440;28;20646;-53
2023/08/21 00:06:11;;;;;;;22.30;7.90;;;16.70;99.90;;;;;;5114180;28;20186;-52
2023/08/21 00:08:37;;;;;;;15.20;8.13;;;16.70;99.90;;;;;;5114281;28;20183;-52
2023/08/21 00:11:02;;;;;;;18.43;6.90;;;16.60;99.90;;;;;;5114026;28;20175;-52
2023/08/21 00:13:28;;;;;;;16.80;7.87;;;16.60;99.90;;;;;;5114029;28;20216;-51
2023/08/21 00:15:55;;;;;;;18.70;8.57;;;16.60;99.90;;;;;;5113982;28;20184;-51
2023/08/21 00:18:21;;;;;;;16.50;7.37;;;16.60;99.90;;;;;;5113691;28;20192;-51
2023/08/21 00:20:46;;;;;;;15.00;7.03;;;16.60;99.90;;;;;;5113819;28;20421;-52
2023/08/21 00:23:12;;;;;;;16.20;7.07;;;16.50;99.90;;;;;;5113853;28;20810;-51
2023/08/21 00:25:37;;;;;;;23.40;8.60;;;16.50;99.90;;;;;;5113777;28;20183;-51
2023/08/21 00:28:03;;;;;;;17.20;8.30;;;16.40;99.90;;;;;;5113761;28;20199;-52
2023/08/21 00:30:29;;;;;;;13.63;6.67;;;16.40;99.90;;;;;;5113785;28;20189;-52
2023/08/21 00:32:55;;;;;;;19.93;7.60;;;16.40;99.90;;;;;;5113764;28;20434;-53
2023/08/21 00:35:20;;;;;;;21.90;7.47;;;16.30;99.90;;;;;;5114155;28;20271;-52
2023/08/21 00:37:46;;;;;;;18.70;8.33;;;16.30;99.90;;;;;;5113827;28;20176;-51
2023/08/21 00:40:13;;;;;;;17.83;7.70;;;16.30;99.90;;;;;;5114038;28;20184;-51
2023/08/21 00:42:38;;;;;;;15.80;7.13;;;16.30;99.90;;;;;;5114276;28;20411;-52
2023/08/21 00:45:05;;;;;;;13.77;6.97;;;16.20;99.90;;;;;;5113819;28;20433;-51
2023/08/21 00:47:30;;;;;;;13.17;6.20;;;16.20;99.90;;;;;;5114229;28;20213;-51
2023/08/21 00:49:56;;;;;;;18.10;8.73;;;16.10;99.90;;;;;;5114291;28;20827;-52
2023/08/21 00:52:22;;;;;;;19.00;7.20;;;16.10;99.90;;;;;;5114105;28;20230;-51
2023/08/21 00:54:49;;;;;;;17.07;7.37;;;16.10;99.90;;;;;;5114091;28;20878;-51
2023/08/21 00:57:15;;;;;;;14.97;7.50;;;16.10;99.90;;;;;;5114018;28;20215;-52
2023/08/21 00:59:41;;;;;;;25.87;8.00;;;16.00;99.90;;;;;;5114109;28;20811;-50
2023/08/21 01:02:06;;;;;;;18.90;7.37;;;16.00;99.90;;;;;;5114043;28;20533;-52
2023/08/21 01:04:32;;;;;;;17.57;6.87;;;15.90;99.90;;;;;;5114007;28;20187;-51
2023/08/21 01:06:58;;;;;;;16.43;7.40;;;15.90;99.90;;;;;;5114158;28;20574;-51
2023/08/21 01:09:35;;;;;;;18.27;7.10;;;15.90;99.90;;;;;;5113624;28;20179;-51
2023/08/21 01:12:37;;;;;;;13.40;7.30;;;15.90;99.90;;;;;;5114539;28;20267;-52
2023/08/21 01:15:06;;;;;;;19.80;7.00;;;15.90;99.90;;;;;;5117427;28;20457;-51
2023/08/21 01:17:37;;;;;;;16.30;7.37;;;15.90;99.90;;;;;;5117052;28;21016;-51
2023/08/21 01:20:06;;;;;;;12.67;7.50;;;15.90;99.90;;;;;;5117295;28;20410;-51
2023/08/21 01:22:39;;;;;;;21.40;8.23;;;15.80;99.90;;;;;;5116602;28;20475;-52
2023/08/21 01:25:06;;;;;;;15.77;8.20;;;15.80;99.90;;;;;;5116885;28;20441;-52
2023/08/21 01:27:33;;;;;;;14.97;7.10;;;15.70;99.90;;;;;;5116477;28;20675;-51
2023/08/21 01:29:59;;;;;;;19.33;7.73;;;15.70;99.90;;;;;;5117234;28;20459;-51
2023/08/21 01:32:38;;;;;;;20.47;7.73;;;15.70;99.90;;;;;;5117129;28;20419;-51
2023/08/21 01:35:05;;;;;;;18.50;7.10;;;15.70;99.90;;;;;;5116823;28;20874;-51
2023/08/21 01:37:31;;;;;;;14.70;7.80;;;15.70;99.90;;;;;;5117027;28;20424;-53
2023/08/21 01:40:00;;;;;;;14.37;7.90;;;15.60;99.90;;;;;;5116859;28;20913;-51
2023/08/21 01:42:25;;;;;;;18.77;8.27;;;15.60;99.90;;;;;;5116485;28;20537;-54
2023/08/21 01:44:51;;;;;;;16.47;6.43;;;15.60;99.90;;;;;;5116830;28;20414;-51
2023/08/21 01:47:16;;;;;;;13.67;6.70;;;15.60;99.90;;;;;;5116560;28;20183;-52
2023/08/21 01:49:42;;;;;;;12.27;6.80;;;15.60;99.90;;;;;;5116363;28;20270;-52
2023/08/21 01:52:08;;;;;;;15.10;7.30;;;15.60;99.90;;;;;;5116775;28;20181;-50
2023/08/21 01:54:33;;;;;;;16.67;8.10;;;15.60;99.90;;;;;;5116552;28;20201;-50
2023/08/21 01:56:59;;;;;;;21.37;7.50;;;15.50;99.90;;;;;;5116649;28;20267;-52
2023/08/21 01:59:24;;;;;;;14.20;6.50;;;15.50;99.90;;;;;;5116249;28;20585;-52
2023/08/21 02:01:50;;;;;;;16.23;7.90;;;15.60;99.90;;;;;;5116457;28;20184;-51
2023/08/21 02:04:16;;;;;;;21.67;7.70;;;15.60;99.90;;;;;;5116456;28;20300;-51
2023/08/21 02:06:43;;;;;;;17.63;7.20;;;15.50;99.90;;;;;;5116403;28;20627;-51
2023/08/21 02:09:09;;;;;;;15.13;7.70;;;15.50;99.90;;;;;;5116342;28;20183;-51
2023/08/21 02:11:35;;;;;;;21.83;7.50;;;15.50;99.90;;;;;;5115964;28;20821;-51
2023/08/21 02:14:00;;;;;;;23.37;7.83;;;15.40;99.90;;;;;;5116282;28;20208;-51
2023/08/21 02:16:26;;;;;;;11.83;6.40;;;15.40;99.90;;;;;;5116005;28;20195;-51
2023/08/21 02:18:52;;;;;;;14.53;6.87;;;15.40;99.90;;;;;;5098018;28;20188;-51
2023/08/21 02:21:17;;;;;;;17.50;7.10;;;15.40;99.90;;;;;;5115928;28;20291;-52
2023/08/21 02:23:43;;;;;;;13.97;7.47;;;15.30;99.90;;;;;;5115359;28;20222;-51
2023/08/21 02:26:08;;;;;;;17.80;7.60;;;15.30;99.90;;;;;;5115950;28;20270;-50
2023/08/21 02:28:34;;;;;;;14.43;8.30;;;15.30;99.90;;;;;;5115772;28;20179;-51
2023/08/21 02:30:59;;;;;;;25.93;8.73;;;15.30;99.90;;;;;;5115653;28;20183;-52
2023/08/21 02:33:25;;;;;;;14.93;8.47;;;15.30;99.90;;;;;;5115602;28;20230;-52
2023/08/21 02:35:51;;;;;;;23.70;9.53;;;15.30;99.90;;;;;;5115726;28;20187;-51
2023/08/21 02:38:17;;;;;;;20.00;9.40;;;15.30;99.90;;;;;;5115888;28;20175;-50
2023/08/21 02:40:42;;;;;;;17.40;8.80;;;15.30;99.90;;;;;;5115782;28;20417;-53
2023/08/21 02:43:08;;;;;;;16.97;9.03;;;15.30;99.90;;;;;;5115678;28;20199;-51
2023/08/21 02:45:33;;;;;;;21.27;10.20;;;15.30;99.90;;;;;;5115573;28;20179;-52
2023/08/21 02:47:59;;;;;;;14.80;8.60;;;15.30;99.90;;;;;;5115540;28;20230;-51
2023/08/21 02:50:25;;;;;;;16.57;9.37;;;15.30;99.90;;;;;;5115365;28;20176;-52
2023/08/21 02:52:50;;;;;;;20.27;8.23;;;15.30;99.90;;;;;;5115474;28;20195;-51
2023/08/21 02:55:16;;;;;;;21.57;9.67;;;15.30;99.90;;;;;;5115301;28;20207;-51
2023/08/21 02:57:41;;;;;;;15.90;9.60;;;15.40;99.90;;;;;;5115014;28;20185;-51
2023/08/21 03:00:08;;;;;;;25.50;8.87;;;15.40;99.90;;;;;;5114992;28;20180;-51
2023/08/21 03:02:34;;;;;;;20.37;9.37;;;15.40;99.90;;;;;;5115244;28;20184;-51
2023/08/21 03:05:00;;;;;;;16.47;8.90;;;15.40;99.90;;;;;;5115328;28;20421;-51
2023/08/21 03:07:25;;;;;;;17.50;9.17;;;15.40;99.90;;;;;;5114954;28;20679;-51
2023/08/21 03:09:51;;;;;;;16.70;8.97;;;15.50;99.90;;;;;;5115212;28;20445;-51
2023/08/21 03:12:17;;;;;;;23.43;9.30;;;15.50;99.90;;;;;;5115024;28;20571;-52
2023/08/21 03:14:42;;;;;;;19.00;8.57;;;15.60;99.90;;;;;;5114953;28;20230;-50
2023/08/21 03:17:08;;;;;;;14.20;9.20;;;15.60;99.90;;;;;;5115065;28;20191;-51
2023/08/21 03:19:34;;;;;;;18.10;9.33;;;15.60;99.90;;;;;;5115262;28;20697;-51
2023/08/21 03:22:00;;;;;;;26.63;9.27;;;15.60;99.90;;;;;;5114562;28;20688;-51
2023/08/21 03:24:25;;;;;;;21.10;10.53;;;15.70;99.90;;;;;;5115210;28;20180;-51
2023/08/21 03:26:51;;;;;;;24.50;10.70;;;15.70;99.90;;;;;;5114688;28;20640;-51
2023/08/21 03:29:16;;;;;;;17.47;9.37;;;15.70;99.90;;;;;;5114474;28;20265;-51
2023/08/21 03:31:42;;;;;;;20.80;9.60;;;15.70;99.90;;;;;;5114552;28;20211;-51
2023/08/21 03:34:08;;;;;;;29.83;10.07;;;15.70;99.90;;;;;;5114293;28;20343;-51
2023/08/21 03:36:36;;;;;;;23.00;10.03;;;15.70;99.90;;;;;;5114629;28;20214;-51
2023/08/21 03:39:03;;;;;;;20.37;9.63;;;15.70;99.90;;;;;;5115006;28;20470;-51
2023/08/21 03:41:29;;;;;;;22.73;9.97;;;15.80;99.90;;;;;;5114460;28;20526;-50
2023/08/21 03:43:54;;;;;;;26.93;11.00;;;15.80;99.90;;;;;;5114955;28;20413;-51
2023/08/21 03:46:20;;;;;;;18.27;10.47;;;15.90;99.90;;;;;;5114392;28;20171;-51
2023/08/21 03:48:46;;;;;;;21.17;10.53;;;15.90;99.90;;;;;;5114769;28;20176;-52
2023/08/21 03:51:11;;;;;;;25.87;11.87;;;15.90;99.90;;;;;;5114214;28;20656;-52
2023/08/21 03:53:37;;;;;;;22.50;10.10;;;16.00;99.90;;;;;;5114335;28;20208;-51
2023/08/21 03:56:03;;;;;;;25.43;11.30;;;16.00;99.90;;;;;;5114528;28;20191;-51
2023/08/21 03:58:28;;;;;;;18.60;9.93;;;15.90;99.90;;;;;;5114343;28;20180;-51
2023/08/21 04:00:54;;;;;;;23.80;10.13;;;15.90;99.90;;;;;;5114342;28;20555;-50
2023/08/21 04:03:20;;;;;;;21.57;11.47;;;16.00;99.90;;;;;;5114194;28;20181;-51
2023/08/21 04:05:46;;;;;;;26.87;10.43;;;16.00;99.90;;;;;;5114257;28;20233;-50
2023/08/21 04:08:13;;;;;;;27.40;10.83;;;15.90;99.90;;;;;;5113867;28;20513;-51
2023/08/21 04:10:38;;;;;;;19.93;9.23;;;16.00;99.90;;;;;;5113941;28;20922;-51
2023/08/21 04:13:04;;;;;;;18.57;11.03;;;15.90;99.90;;;;;;5113920;28;20444;-50
2023/08/21 04:15:31;;;;;;;18.23;9.20;;;15.90;99.90;;;;;;5114281;28;20206;-51
2023/08/21 04:17:56;;;;;;;31.47;12.43;;;15.90;99.90;;;;;;5113843;28;20406;-51
2023/08/21 04:20:22;;;;;;;17.03;9.07;;;15.90;99.90;;;;;;5114367;28;20510;-51
2023/08/21 04:22:49;;;;;;;21.20;9.80;;;16.00;99.90;;;;;;5114541;28;20242;-51
2023/08/21 04:25:14;;;;;;;22.00;9.83;;;16.00;99.90;;;;;;5114142;28;20206;-52
2023/08/21 04:27:41;;;;;;;23.60;10.33;;;16.00;99.90;;;;;;5114101;28;20840;-51
2023/08/21 04:30:07;;;;;;;17.63;9.87;;;16.10;99.90;;;;;;5114075;28;20184;-50
2023/08/21 04:32:33;;;;;;;26.50;10.80;;;16.10;99.90;;;;;;5114048;28;20410;-51
2023/08/21 04:34:59;;;;;;;22.70;11.90;;;16.10;99.90;;;;;;5114206;28;20457;-52
2023/08/21 04:37:24;;;;;;;26.50;11.13;;;16.20;99.90;;;;;;5114279;28;20274;-51
2023/08/21 04:39:51;;;;;;;24.37;10.80;;;16.20;99.90;;;;;;5114216;28;20180;-51
2023/08/21 04:42:17;;;;;;;24.07;10.70;;;16.30;99.90;;;;;;5114200;28;20182;-51
2023/08/21 04:44:43;;;;;;;25.23;10.70;;;16.20;99.90;;;;;;5113995;28;20417;-52
2023/08/21 04:47:26;;;;;;;21.10;9.60;;;16.30;99.90;;;;;;5114902;28;20226;-51
2023/08/21 04:49:52;;;;;;;16.97;9.70;;;16.30;99.90;;;;;;5117940;28;20185;-51
2023/08/21 04:52:18;;;;;;;25.30;10.33;;;16.40;99.90;;;;;;5117512;28;20743;-51
2023/08/21 04:54:44;;;;;;;28.63;10.93;;;16.40;99.90;;;;;;5117422;28;20477;-50
2023/08/21 04:57:09;;;;;;;19.37;10.20;;;16.50;99.90;;;;;;5117887;28;20422;-51
2023/08/21 04:59:36;;;;;;;23.00;9.90;;;16.50;99.90;;;;;;5118014;28;20173;-51
2023/08/21 05:02:02;;;;;;;25.13;9.80;;;16.50;99.90;;;;;;5117731;28;20647;-52
2023/08/21 05:04:27;;;;;;;21.77;9.30;;;16.50;99.90;;;;;;5117894;28;20423;-51
2023/08/21 05:06:53;;;;;;;19.67;9.23;;;16.50;99.90;;;;;;5117942;28;20860;-51
2023/08/21 05:09:18;;;;;;;16.87;8.27;;;16.60;99.90;;;;;;5117735;28;20271;-51
2023/08/21 05:11:44;;;;;;;13.50;8.10;;;16.60;99.90;;;;;;5117802;28;20182;-51
2023/08/21 05:14:10;;;;;;;26.73;8.23;;;16.60;99.90;;;;;;5117472;28;20212;-53
2023/08/21 05:16:35;;;;;;;15.07;7.50;;;16.70;99.90;;;;;;5117312;28;20262;-52
2023/08/21 05:19:01;;;;;;;27.53;8.07;;;16.70;99.90;;;;;;5117738;28;20180;-52
2023/08/21 05:21:27;;;;;;;18.00;7.33;;;16.70;99.90;;;;;;5117476;28;20229;-51
2023/08/21 05:23:53;;;;;;;22.40;7.20;;;16.80;99.90;;;;;;5117372;28;20172;-51
2023/08/21 05:26:19;;;;;;;17.97;7.53;;;16.80;99.90;;;;;;5117288;28;20421;-52
2023/08/21 05:28:45;;;;;;;23.47;7.80;;;16.90;99.90;;;;;;5117491;28;20177;-52
2023/08/21 05:31:12;;;;;;;18.10;6.93;;;17.00;99.90;;;;;;5117056;28;20474;-51
2023/08/21 05:33:38;;;;;;;16.33;6.20;;;17.00;99.90;;;;;;5116931;28;20511;-51
2023/08/21 05:36:04;;;;;;;24.93;8.03;;;17.10;99.90;;;;;;5116760;28;20193;-51
2023/08/21 05:38:30;;;;;;;20.80;6.47;;;17.20;99.90;;;;;;5117381;28;20421;-52
2023/08/21 05:40:56;;;;;;;26.33;7.07;;;17.20;99.90;;;;;;5116981;28;20411;-52
2023/08/21 05:43:22;;;;;;;22.03;7.70;;;17.30;99.90;;;;;;5116869;28;20567;-52
2023/08/21 05:45:48;;;;;;;18.07;6.43;;;17.40;99.90;;;;;;5116813;28;20623;-52
2023/08/21 05:48:13;;;;;;;23.63;6.13;;;17.40;99.90;;;;;;5116754;28;20175;-52
2023/08/21 05:50:39;;;;;;;22.87;6.43;;;17.50;99.90;;;;;;5116891;28;20252;-53
2023/08/21 05:53:05;;;;;;;22.30;6.80;;;17.60;99.90;;;;;;5116599;28;20186;-52
2023/08/21 05:55:30;;;;;;;14.70;6.00;;;17.80;99.90;;;;;;5116720;28;20192;-52
2023/08/21 05:57:56;;;;;;;23.70;6.17;;;18.00;99.90;;;;;;5115938;28;20414;-52
2023/08/21 06:00:22;;;;;;;19.23;5.30;;;18.20;99.90;;;;;;5115865;28;20235;-53
2023/08/21 06:02:47;;;;;;;16.20;5.20;;;18.50;99.90;;;;;;5116627;28;20173;-52
2023/08/21 06:05:13;;;;;;;21.90;5.20;;;18.70;97.70;;;;;;5116622;28;20687;-52
2023/08/21 06:07:40;;;;;;;15.00;4.20;;;18.80;1.00;;;;;;5116254;28;20210;-53
2023/08/21 06:10:07;;;;;;;13.63;5.07;;;19.00;1.00;;;;;;5116147;28;20643;-51
2023/08/21 06:12:32;;;;;;;17.60;3.83;;;19.10;1.00;;;;;;5116342;28;20439;-52
2023/08/21 06:14:58;;;;;;;13.30;4.57;;;19.30;99.90;;;;;;5116215;28;20993;-53
2023/08/21 06:17:24;;;;;;;18.23;4.23;;;19.40;99.90;;;;;;5115932;28;20673;-52
2023/08/21 06:19:49;;;;;;;11.60;4.23;;;19.60;99.90;;;;;;5116242;28;20181;-53
2023/08/21 06:22:15;;;;;;;15.43;3.67;;;19.80;27.10;;;;;;5115657;28;20253;-52
2023/08/21 06:24:41;;;;;;;11.90;4.10;;;19.90;1.00;;;;;;5116243;28;20212;-53
2023/08/21 06:27:07;;;;;;;12.53;4.17;;;20.10;99.90;;;;;;5115767;28;20217;-53
2023/08/21 06:29:33;;;;;;;13.57;4.10;;;20.20;99.90;;;;;;5115700;28;20793;-53
2023/08/21 06:31:58;;;;;;;9.67;3.30;;;20.20;1.00;;;;;;5116244;28;20176;-53
2023/08/21 06:34:24;;;;;;;14.80;3.97;;;20.40;1.00;;;;;;5115738;28;20208;-53
2023/08/21 06:36:49;;;;;;;10.30;3.20;;;20.50;1.00;;;;;;5116085;28;20208;-53
2023/08/21 06:39:15;;;;;;;14.90;3.10;;;20.70;99.90;;;;;;5115565;28;20176;-54
2023/08/21 06:41:40;;;;;;;13.43;3.60;;;20.80;99.90;;;;;;5115883;28;20207;-53
2023/08/21 06:44:06;;;;;;;12.27;2.90;;;20.90;99.90;;;;;;5115907;28;20191;-54
2023/08/21 06:46:32;;;;;;;9.37;3.23;;;21.00;99.90;;;;;;5115651;28;20186;-53
2023/08/21 06:48:57;;;;;;;9.00;2.57;;;21.10;99.90;;;;;;5097377;28;20183;-54
2023/08/21 06:51:23;;;;;;;8.93;2.60;;;21.30;99.90;;;;;;5115577;28;20245;-54
2023/08/21 06:53:48;;;;;;;9.70;2.83;;;21.40;99.90;;;;;;5115812;28;20294;-53
2023/08/21 06:56:15;;;;;;;7.40;2.37;;;21.40;55.30;;;;;;5115359;28;20272;-55
2023/08/21 06:58:40;;;;;;;7.83;2.63;;;21.60;31.70;;;;;;5115794;28;20632;-53
2023/08/21 07:01:06;;;;;;;10.80;2.67;;;21.80;97.50;;;;;;5118283;28;20504;-52
2023/08/21 07:03:31;;;;;;;14.70;2.90;;;21.90;47.70;;;;;;5116404;28;20852;-52
2023/08/21 07:05:59;;;;;;;10.53;2.63;;;22.10;58.10;;;;;;5115336;28;20224;-53
2023/08/21 07:08:25;;;;;;;10.93;2.50;;;22.30;1.00;;;;;;5116593;28;20176;-54
2023/08/21 07:10:50;;;;;;;11.60;2.90;;;22.30;1.00;;;;;;5114822;28;20909;-53
2023/08/21 07:13:16;;;;;;;7.90;2.50;;;22.40;1.00;;;;;;5114721;28;20418;-52
2023/08/21 07:15:42;;;;;;;5.53;2.30;;;22.50;1.00;;;;;;5115058;28;20192;-53
2023/08/21 07:18:08;;;;;;;10.30;2.40;;;22.50;1.00;;;;;;5114767;28;20449;-52
2023/08/21 07:20:34;;;;;;;5.90;2.40;;;22.70;1.00;;;;;;5115274;28;20264;-52
2023/08/21 07:22:59;;;;;;;7.97;2.27;;;23.10;1.00;;;;;;5114808;28;20232;-53
2023/08/21 07:25:28;;;;;;;11.20;2.43;;;23.40;1.00;;;;;;5114888;28;20234;-54
2023/08/21 07:27:54;;;;;;;6.60;2.10;;;23.60;1.00;;;;;;5114824;28;20272;-53
2023/08/21 07:30:22;;;;;;;12.67;2.43;;;23.80;1.00;;;;;;5114830;28;20459;-53
2023/08/21 07:32:47;;;;;;;5.00;2.00;;;24.20;1.00;;;;;;5114742;28;20411;-53
2023/08/21 07:35:13;;;;;;;8.10;2.50;;;24.40;1.00;;;;;;5116938;28;20949;-54
2023/08/21 07:37:40;;;;;;;16.17;2.90;;;24.40;1.00;;;;;;5114947;28;20237;-53
2023/08/21 07:40:07;;;;;;;11.27;2.13;;;24.50;1.00;;;;;;5114868;28;20184;-53
2023/08/21 07:42:32;;;;;;;9.90;2.10;;;24.70;1.00;;;;;;5113762;28;20411;-53
2023/08/21 07:44:58;;;;;;;9.33;2.10;;;24.70;1.00;;;;;;5113795;28;20782;-53
2023/08/21 07:47:23;;;;;;;9.23;2.40;;;24.50;1.00;;;;;;5113714;28;20188;-53
2023/08/21 07:49:49;;;;;;;10.00;2.30;;;24.40;1.00;;;;;;5113048;28;20180;-53
2023/08/21 07:52:16;;;;;;;9.17;2.47;;;24.60;1.00;;;;;;5113517;28;20192;-53
2023/08/21 07:54:41;;;;;;;5.57;2.00;;;24.90;1.00;;;;;;5113400;28;20204;-50
2023/08/21 07:57:07;;;;;;;12.80;2.30;;;25.10;1.00;;;;;;5113975;28;20414;-50
2023/08/21 07:59:32;;;;;;;6.93;2.00;;;25.40;1.00;;;;;;5112917;28;20275;-53
2023/08/21 08:02:00;;;;;;;6.10;1.87;;;25.50;1.00;;;;;;5095662;28;20181;-53
2023/08/21 08:04:25;;;;;;;4.90;1.50;;;25.40;1.00;;;;;;5114301;28;20180;-53
2023/08/21 08:06:51;;;;;;;10.00;2.17;;;25.60;1.00;;;;;;5114029;28;20418;-53
2023/08/21 08:09:17;;;;;;;5.57;2.20;;;25.80;1.00;;;;;;5113611;28;20532;-52
2023/08/21 08:11:42;;;;;;;6.17;2.10;;;26.10;1.00;;;;;;5113778;28;20185;-51
2023/08/21 08:14:08;;;;;;;3.60;1.70;;;26.00;1.00;;;;;;5114132;28;20295;-52
2023/08/21 08:16:33;;;;;;;3.37;1.50;;;26.00;1.00;;;;;;5114888;28;20563;-53
2023/08/21 08:18:59;;;;;;;4.60;1.70;;;26.10;1.00;;;;;;5114621;28;20190;-52
2023/08/21 08:21:25;;;;;;;6.20;1.70;;;26.00;1.00;;;;;;5113919;28;20228;-53
2023/08/21 08:23:50;;;;;;;4.73;2.20;;;25.70;1.00;;;;;;5118373;28;20169;-52
2023/08/21 08:26:16;;;;;;;6.53;1.80;;;25.70;1.00;;;;;;5117648;28;20252;-52
2023/08/21 08:28:42;;;;;;;3.70;1.70;;;25.70;1.00;;;;;;5117692;28;20380;-52
2023/08/21 08:31:17;;;;;;;5.83;1.80;;;25.90;1.00;;;;;;5117921;28;20508;-52
2023/08/21 08:33:43;;;;;;;4.97;1.60;;;26.00;1.00;;;;;;5117569;28;20457;-52
2023/08/21 08:36:09;;;;;;;4.10;1.53;;;26.30;1.00;;;;;;5117529;28;20414;-53
2023/08/21 08:38:34;;;;;;;6.73;2.07;;;26.50;1.00;;;;;;5117686;28;20501;-52
2023/08/21 08:41:02;;;;;;;4.00;1.47;;;26.60;1.00;;;;;;5118033;28;20260;-52
2023/08/21 08:43:28;;;;;;;5.70;1.77;;;26.90;1.00;;;;;;5117764;28;20180;-52
2023/08/21 08:45:58;;;;;;;7.20;1.93;;;27.00;1.00;;;;;;5117851;28;20738;-52
2023/08/21 08:48:23;;;;;;;3.40;1.33;;;27.30;1.00;;;;;;5117801;28;20443;-52
2023/08/21 08:50:51;;;;;;;9.63;1.87;;;27.50;1.00;;;;;;5117615;28;20501;-52
2023/08/21 08:53:18;;;;;;;4.53;1.33;;;27.70;1.00;;;;;;5117189;28;20622;-52
2023/08/21 08:55:44;;;;;;;3.20;1.60;;;27.70;1.00;;;;;;5117636;28;20418;-51
2023/08/21 08:58:10;;;;;;;4.63;1.90;;;27.70;1.00;;;;;;5117903;28;20414;-53
2023/08/21 09:00:35;;;;;;;6.73;1.83;;;27.80;1.00;;;;;;5117421;28;20758;-52
2023/08/21 09:03:01;;;;;;;3.97;1.67;;;27.80;1.00;;;;;;5117324;28;20174;-53
2023/08/21 09:05:27;;;;;;;5.83;1.70;;;27.80;1.00;;;;;;5117443;28;20539;-52
2023/08/21 09:08:11;;;;;;;6.37;1.43;;;28.10;1.00;;;;;;5117583;28;20181;-52
2023/08/21 09:10:41;;;;;;;7.57;2.27;;;27.90;1.00;;;;;;5117805;28;20181;-52
2023/08/21 09:13:18;;;;;;;4.27;1.87;;;28.00;1.00;;;;;;5117624;28;20489;-52
2023/08/21 09:15:52;;;;;;;5.70;1.70;;;27.90;1.00;;;;;;5117745;28;20780;-52
2023/08/21 09:18:18;;;;;;;4.37;2.00;;;27.60;1.00;;;;;;5117231;28;20394;-52
2023/08/21 09:20:43;;;;;;;4.80;1.50;;;27.20;1.00;;;;;;5117041;28;20505;-52
2023/08/21 09:23:14;;;;;;;7.10;1.87;;;27.10;1.00;;;;;;5116876;28;20262;-52
2023/08/21 09:25:40;;;;;;;3.20;1.43;;;27.00;1.00;;;;;;5117054;28;20176;-52
2023/08/21 09:28:07;;;;;;;3.23;1.27;;;27.20;1.00;;;;;;5116696;28;20415;-52
2023/08/21 09:30:54;;;;;;;4.67;1.80;;;27.10;1.00;;;;;;5116992;28;20407;-53
2023/08/21 09:33:24;;;;;;;4.13;1.47;;;27.00;1.00;;;;;;5116908;28;20407;-52
2023/08/21 09:35:52;;;;;;;7.83;1.40;;;26.80;1.00;;;;;;5117255;28;20419;-51
2023/08/21 09:38:21;;;;;;;4.57;1.80;;;26.60;1.00;;;;;;5116517;28;20414;-51
2023/08/21 09:40:54;;;;;;;6.23;1.70;;;26.60;1.00;;;;;;5116918;28;20418;-51
2023/08/21 09:43:23;;;;;;;3.70;1.73;;;26.20;1.00;;;;;;5116882;28;20407;-53
2023/08/21 09:45:55;;;;;;;4.90;1.40;;;25.90;1.00;;;;;;5116506;28;20407;-52
2023/08/21 09:48:29;;;;;;;4.60;1.67;;;25.70;1.00;;;;;;5117030;28;20403;-52
2023/08/21 09:50:59;;;;;;;3.10;1.60;;;25.60;1.00;;;;;;5116789;28;20407;-52
2023/08/21 09:53:25;;;;;;;5.83;1.70;;;25.60;1.00;;;;;;5116738;28;20430;-53
2023/08/21 09:55:55;;;;;;;4.13;1.10;;;25.30;1.00;;;;;;5098556;28;20427;-52
2023/08/21 09:58:21;;;;;;;5.00;1.70;;;25.10;1.00;;;;;;5117196;28;20532;-53
2023/08/21 10:00:49;;;;;;;8.07;1.83;;;25.20;1.00;;;;;;5116732;28;20490;-51
2023/08/21 10:03:19;;;;;;;7.40;1.90;;;25.40;1.00;;;;;;5116079;28;20260;-52
2023/08/21 10:05:45;;;;;;;4.10;1.43;;;25.10;1.00;;;;;;5116640;28;20411;-52
2023/08/21 10:08:14;;;;;;;6.50;1.70;;;24.90;1.00;;;;;;5097937;28;20435;-52
2023/08/21 10:10:40;;;;;;;4.00;1.50;;;25.00;1.00;;;;;;5116495;28;20418;-52
2023/08/21 10:13:07;;;;;;;6.53;1.90;;;25.20;1.00;;;;;;5116326;28;20544;-54
2023/08/21 10:15:34;;;;;;;4.17;1.57;;;25.30;1.00;;;;;;5097970;28;20303;-54
2023/08/21 10:18:20;;;;;;;4.13;1.30;;;25.40;1.00;;;;;;5116347;28;20493;-52
2023/08/21 10:20:46;;;;;;;7.13;1.43;;;25.70;1.00;;;;;;5116080;28;20415;-51
2023/08/21 10:23:27;;;;;;;2.87;1.30;;;26.10;1.00;;;;;;5115688;28;20454;-52
2023/08/21 10:26:00;;;;;;;4.17;1.40;;;26.40;1.00;;;;;;5116146;28;20407;-51
2023/08/21 10:28:53;;;;;;;4.83;1.43;;;27.00;1.00;;;;;;5116152;28;20418;-52
2023/08/21 10:31:32;;;;;;;5.60;1.37;;;27.70;1.00;;;;;;5115655;28;20417;-52
2023/08/21 10:33:59;;;;;;;3.80;1.30;;;28.30;1.00;;;;;;5116021;28;21024;-52
2023/08/21 10:36:42;;;;;;;4.73;1.33;;;28.50;1.00;;;;;;5116495;28;20415;-53
2023/08/21 10:39:22;;;;;;;6.13;1.53;;;28.50;1.00;;;;;;5115884;28;20421;-52
2023/08/21 10:41:57;;;;;;;4.20;1.20;;;28.20;1.00;;;;;;5116216;28;20397;-52
2023/08/21 10:44:55;;;;;;;3.97;1.90;;;28.30;1.00;;;;;;5115961;28;20430;-53
2023/08/21 10:47:27;;;;;;;6.60;1.50;;;28.50;1.00;;;;;;5115677;28;20406;-52
2023/08/21 10:49:56;;;;;;;4.30;1.30;;;29.00;1.00;;;;;;5115736;28;20422;-52
2023/08/21 10:52:26;;;;;;;3.20;1.40;;;29.00;1.00;;;;;;5115659;28;20498;-52
2023/08/21 10:54:54;;;;;;;6.23;1.90;;;29.30;1.00;;;;;;5115614;28;20594;-52
2023/08/21 10:57:20;;;;;;;6.07;1.20;;;29.50;1.00;;;;;;5115058;28;20895;-53
2023/08/21 11:00:13;;;;;;;2.50;1.00;;;29.40;1.00;;;;;;5115217;28;20406;-53
2023/08/21 11:02:41;;;;;;;3.80;1.53;;;29.10;1.00;;;;;;5115560;28;20407;-52
2023/08/21 11:05:08;;;;;;;3.73;1.40;;;29.00;1.00;;;;;;5115220;28;20820;-52
2023/08/21 11:07:46;;;;;;;5.40;1.63;;;29.30;1.00;;;;;;5115318;28;20414;-52
2023/08/21 11:10:14;;;;;;;5.77;1.63;;;29.60;1.00;;;;;;5115366;28;20443;-53
2023/08/21 11:12:57;;;;;;;4.27;1.33;;;29.90;1.00;;;;;;5115371;28;20426;-54
2023/08/21 11:15:24;;;;;;;6.93;1.47;;;30.40;1.00;;;;;;5115274;28;20450;-54
2023/08/21 11:18:07;;;;;;;2.27;1.13;;;30.90;1.00;;;;;;5114970;28;20434;-53
2023/08/21 11:20:34;;;;;;;3.83;1.33;;;30.70;1.00;;;;;;5115328;28;20398;-53
2023/08/21 11:23:07;;;;;;;4.53;1.30;;;30.70;1.00;;;;;;5114336;28;20981;-52
2023/08/21 11:25:34;;;;;;;3.97;1.17;;;31.00;1.00;;;;;;5115195;28;20447;-54
2023/08/21 11:28:02;;;;;;;4.10;1.60;;;31.00;1.00;;;;;;5114917;28;20940;-52
2023/08/21 11:30:28;;;;;;;5.20;1.60;;;30.50;1.00;;;;;;5114993;28;20410;-53
2023/08/21 11:33:11;;;;;;;2.40;1.30;;;30.60;1.00;;;;;;5115151;28;20418;-51
2023/08/21 11:35:40;;;;;;;3.90;1.40;;;31.20;1.00;;;;;;5114658;28;20657;-53
2023/08/21 11:38:13;;;;;;;1.70;1.00;;;31.40;1.00;;;;;;5114656;28;20494;-52
2023/08/21 11:40:38;;;;;;;4.17;1.00;;;31.60;1.00;;;;;;5114770;28;20402;-53
2023/08/21 11:43:06;;;;;;;2.23;1.13;;;31.50;1.00;;;;;;5114359;28;20425;-53
2023/08/21 11:45:31;;;;;;;5.47;1.10;;;31.60;1.00;;;;;;5114284;28;20184;-53
2023/08/21 11:47:57;;;;;;;2.77;1.27;;;31.70;99.90;;;;;;5114351;28;20493;-52
2023/08/21 11:50:23;;;;;;;2.90;1.20;;;31.50;99.90;;;;;;5114367;28;20192;-52
2023/08/21 11:52:55;;;;;;;2.70;1.33;;;31.00;99.90;;;;;;5114463;28;20414;-51
2023/08/21 11:55:22;;;;;;;5.50;1.40;;;30.60;99.90;;;;;;5114183;28;20219;-52
2023/08/21 11:57:53;;;;;;;3.57;1.30;;;31.00;99.90;;;;;;5114171;28;20410;-52
2023/08/21 12:00:25;;;;;;;2.47;1.13;;;31.40;99.90;;;;;;5114758;28;20505;-52
2023/08/21 12:02:58;;;;;;;2.30;1.10;;;31.50;99.90;;;;;;5114521;28;20730;-54
2023/08/21 12:05:24;;;;;;;3.50;1.23;;;31.60;1.00;;;;;;5114586;28;20494;-53
2023/08/21 12:07:50;;;;;;;4.37;1.20;;;31.50;99.90;;;;;;5114331;28;20410;-52
2023/08/21 12:10:26;;;;;;;4.13;1.20;;;31.60;99.90;;;;;;5114010;28;20414;-52
2023/08/21 12:12:52;;;;;;;3.90;1.20;;;31.90;99.90;;;;;;5115090;28;20601;-52
2023/08/21 12:15:18;;;;;;;1.53;1.00;;;31.80;99.90;;;;;;5114528;28;20489;-53
2023/08/21 12:17:44;;;;;;;3.43;1.20;;;31.90;99.90;;;;;;5114190;28;20981;-51
2023/08/21 12:20:12;;;;;;;2.47;1.30;;;31.70;99.90;;;;;;5114396;28;20509;-53
2023/08/21 12:22:39;;;;;;;2.33;1.10;;;31.30;99.90;;;;;;5113678;28;20236;-53
2023/08/21 12:25:05;;;;;;;2.47;1.20;;;30.80;99.90;;;;;;5114165;28;20785;-53
2023/08/21 12:27:31;;;;;;;2.10;1.13;;;30.60;99.90;;;;;;5114538;28;20407;-53
2023/08/21 12:29:56;;;;;;;2.27;1.43;;;29.40;99.90;;;;;;5114291;28;20955;-52
2023/08/21 12:32:22;;;;;;;4.10;1.40;;;29.40;99.90;;;;;;5114183;28;20196;-52
2023/08/21 12:34:48;;;;;;;4.30;1.60;;;30.00;99.90;;;;;;5114090;28;20215;-52
2023/08/21 12:37:14;;;;;;;3.80;1.23;;;30.40;99.90;;;;;;5114198;28;20216;-51
2023/08/21 12:39:39;;;;;;;1.70;1.33;;;30.70;99.90;;;;;;5114391;28;20201;-51
2023/08/21 12:42:05;;;;;;;2.77;1.40;;;30.90;99.90;;;;;;5113783;28;20870;-51
2023/08/21 12:44:30;;;;;;;8.00;1.40;;;30.70;99.90;;;;;;5114493;28;20180;-53